createdAt,value
2023-03-29T01:13:19.484Z,9.365786
2023-03-29T01:14:19.018Z,9.365786
2023-03-29T01:15:18.867Z,9.365889
2023-03-29T01:16:54.056Z,9.366068
2023-03-29T01:17:19.021Z,9.366120
2023-03-29T01:18:18.982Z,9.365957
2023-03-29T01:19:18.751Z,9.366315
2023-03-29T01:20:18.737Z,9.366148
2023-03-29T01:21:18.646Z,9.366158
2023-03-29T01:22:18.697Z,9.366001
2023-03-29T02:43:41.604Z,9.365943
2023-03-29T02:44:41.587Z,9.366014
2023-03-29T02:45:41.650Z,9.366008
2023-03-29T02:46:41.613Z,9.365993
2023-03-29T02:47:41.643Z,9.365936
2023-03-29T02:48:41.534Z,9.366016
2023-03-29T02:49:41.539Z,9.366030
2023-03-29T02:50:41.739Z,9.366026
2023-03-29T02:51:41.496Z,9.365981
2023-03-29T02:52:41.513Z,9.366202
2023-03-29T02:53:41.480Z,9.366199
2023-03-29T02:54:41.476Z,9.366405
2023-03-29T02:55:41.571Z,9.366375
2023-03-29T02:56:41.514Z,9.366117
2023-03-29T02:57:41.423Z,9.366096
2023-03-29T02:58:41.438Z,9.366008
2023-03-29T02:59:41.441Z,9.365969
2023-03-29T03:00:41.428Z,9.365875
2023-03-29T03:01:41.456Z,9.365894
2023-03-29T03:02:41.428Z,9.366018
2023-03-29T03:03:41.508Z,9.366057
2023-03-29T03:04:41.374Z,9.366057
2023-03-29T03:05:41.348Z,9.366057
2023-03-29T03:06:41.533Z,9.366057
2023-03-29T03:07:41.378Z,9.366157
2023-03-29T03:08:41.301Z,9.365986
2023-03-29T03:09:41.314Z,9.365927
2023-03-29T03:10:41.269Z,9.365917
2023-03-29T03:11:41.274Z,9.366055
2023-03-29T03:12:41.328Z,9.366018
2023-03-29T03:13:41.257Z,9.366050
2023-03-29T03:14:41.228Z,9.366211
2023-03-29T03:15:41.242Z,9.365967
2023-03-29T03:16:41.322Z,9.366274
2023-03-29T03:17:41.259Z,9.365972
2023-03-29T03:18:41.195Z,9.366088
2023-03-29T03:19:41.612Z,9.366123
2023-03-29T03:20:41.178Z,9.366488
2023-03-29T03:21:41.167Z,9.366289
2023-03-29T03:22:41.178Z,9.365575
2023-03-29T03:23:41.132Z,9.365904
2023-03-29T03:24:41.130Z,9.365829
2023-03-29T03:25:41.088Z,9.365829
2023-03-29T03:26:41.085Z,9.365829
2023-03-29T03:27:41.112Z,9.365765
2023-03-29T03:28:41.441Z,9.366022
2023-03-29T03:29:41.067Z,9.366243
2023-03-29T03:30:41.047Z,9.366243
2023-03-29T03:31:41.064Z,9.366243
2023-03-29T03:32:41.099Z,9.366243
2023-03-29T03:33:41.007Z,9.366243
2023-03-29T03:34:41.043Z,9.366243
2023-03-29T03:35:41.036Z,9.365847
2023-03-29T03:36:40.974Z,9.365849
2023-03-29T03:37:41.002Z,9.365931
2023-03-29T03:38:40.983Z,9.365895
2023-03-29T03:39:40.956Z,9.365981
2023-03-29T03:40:40.984Z,9.366014
2023-03-29T03:41:40.939Z,9.366189
2023-03-29T03:42:40.936Z,9.366012
2023-03-29T03:43:40.987Z,9.366055
2023-03-29T03:44:40.913Z,9.366058
2023-03-29T03:45:40.928Z,9.365904
2023-03-29T03:46:40.875Z,9.366036
2023-03-29T03:47:40.930Z,9.366184
2023-03-29T03:48:40.865Z,9.366142
2023-03-29T03:49:40.850Z,9.366142
2023-03-29T03:50:40.820Z,9.366142
2023-03-29T03:51:40.836Z,9.366142
2023-03-29T03:52:40.801Z,9.366142
2023-03-29T03:53:40.766Z,9.366142
2023-03-29T03:54:40.796Z,9.366142
2023-03-29T03:55:40.794Z,9.366142
2023-03-29T03:56:40.778Z,9.366142
2023-03-29T03:57:40.825Z,9.366142
2023-03-29T03:58:40.756Z,9.366142
2023-03-29T03:59:40.743Z,9.366142
2023-03-29T04:54:36.433Z,9.367949
2023-03-29T04:55:36.426Z,9.367949
2023-03-29T04:56:36.356Z,9.365841
2023-03-29T04:57:36.385Z,9.366309
2023-03-29T04:58:36.344Z,9.366897
2023-03-29T04:59:36.348Z,9.367604
2023-03-29T05:00:36.489Z,9.367280
2023-03-29T05:01:36.434Z,9.367078
2023-03-29T05:02:36.324Z,9.367078
2023-03-29T05:03:36.301Z,9.367078
2023-03-29T05:04:36.292Z,9.367078
2023-03-29T05:05:36.296Z,9.367078
2023-03-29T05:06:36.265Z,9.367078
2023-03-29T05:07:36.228Z,9.367078
2023-03-29T05:08:36.239Z,9.367078
2023-03-29T05:09:36.199Z,9.367078
2023-03-29T05:10:36.223Z,9.367078
2023-03-29T05:11:36.218Z,9.367078
2023-03-29T05:12:36.182Z,9.367078
2023-03-29T05:13:36.178Z,9.367078
2023-03-29T05:14:36.172Z,9.367078
2023-03-29T05:15:36.138Z,9.367078
2023-03-29T05:16:36.203Z,9.367078
2023-03-29T05:17:36.220Z,9.367078
2023-03-29T05:18:36.098Z,9.367078
2023-03-29T05:19:36.100Z,9.367078
2023-03-29T05:20:36.104Z,9.367078
2023-03-29T05:21:36.084Z,9.367078
2023-03-29T05:22:36.067Z,9.367078
2023-03-29T05:23:36.051Z,9.367078
2023-03-29T05:24:36.060Z,9.367078
2023-03-29T05:25:36.023Z,9.367078
2023-03-29T05:26:35.997Z,9.367078
2023-03-29T05:27:36.013Z,9.367078
2023-03-29T05:28:36.004Z,9.367078
2023-03-29T05:29:36.005Z,9.367078
2023-03-29T05:30:35.978Z,9.367078
2023-03-29T05:31:35.994Z,9.367078
2023-03-29T05:32:36.012Z,9.367078
2023-03-29T05:33:35.934Z,9.367078
2023-03-29T05:34:35.923Z,9.367078
2023-03-29T05:35:36.042Z,9.367078
2023-03-29T05:36:36.063Z,9.367078
2023-03-29T05:37:35.936Z,9.367078
2023-03-29T05:38:35.938Z,9.367078
2023-03-29T05:39:37.610Z,9.367078
2023-03-29T05:40:35.875Z,9.367078
2023-03-29T05:41:35.860Z,9.367078
2023-03-29T05:42:35.833Z,9.367078
2023-03-29T05:43:35.888Z,9.367078
2023-03-29T05:44:35.817Z,9.367078
2023-03-29T05:45:35.860Z,9.367078
2023-03-29T05:46:35.787Z,9.367078
2023-03-29T05:47:35.802Z,9.367078
2023-03-29T05:48:35.812Z,9.367078
2023-03-29T05:49:35.730Z,9.367078
2023-03-29T05:50:35.754Z,9.367078
2023-03-29T05:51:35.701Z,9.367078
2023-03-29T05:52:35.694Z,9.367078
2023-03-29T05:53:35.836Z,9.367078
2023-03-29T05:54:35.699Z,9.367078
2023-03-29T05:55:35.677Z,9.367078
2023-03-29T05:56:36.057Z,9.366144
2023-03-29T05:57:35.639Z,9.365946
2023-03-29T05:58:35.652Z,9.366303
2023-03-29T05:59:35.636Z,9.365988
2023-03-29T06:00:35.606Z,9.366076
2023-03-29T06:01:35.594Z,9.366008
2023-03-29T06:02:35.630Z,9.365990
2023-03-29T06:03:35.754Z,9.366022
2023-03-29T06:04:35.657Z,9.366043
2023-03-29T06:17:51.498Z,9.365984
2023-03-29T06:18:51.385Z,9.365907
2023-03-29T06:19:51.417Z,9.365907
2023-03-29T06:20:52.353Z,9.365646
2023-03-29T06:21:51.364Z,9.365509
2023-03-29T06:23:02.196Z,9.365573
2023-03-29T06:23:52.345Z,9.365538
2023-03-29T06:24:51.336Z,9.365508
2023-03-29T06:26:12.457Z,9.365490
2023-03-29T06:26:52.684Z,9.365490
2023-03-29T06:27:51.312Z,9.365490
2023-03-29T06:28:52.356Z,9.365490
2023-03-29T06:29:51.270Z,9.365490
2023-03-29T06:30:51.354Z,9.365490
2023-03-29T06:31:51.341Z,9.365490
2023-03-29T06:32:51.261Z,9.365490
2023-03-29T06:33:51.251Z,9.365490
2023-03-29T06:34:51.217Z,9.365490
2023-03-29T06:35:51.284Z,9.365490
2023-03-29T06:36:51.238Z,9.365490
2023-03-29T06:37:51.181Z,9.365490
2023-03-29T06:38:51.152Z,9.365490
2023-03-29T06:39:53.303Z,9.365490
2023-03-29T06:40:51.143Z,9.365490
2023-03-29T06:41:51.152Z,9.365490
2023-03-29T06:42:51.121Z,9.365490
2023-03-29T06:43:51.111Z,9.365490
2023-03-29T06:44:51.083Z,9.365490
2023-03-29T06:45:51.103Z,9.365490
2023-03-29T06:46:51.170Z,9.365490
2023-03-29T06:47:51.180Z,9.365490
2023-03-29T06:48:51.068Z,9.365490
2023-03-29T06:49:51.077Z,9.365490
2023-03-29T06:50:51.060Z,9.366585
2023-03-29T06:51:51.013Z,9.365899
2023-03-29T06:52:51.077Z,9.366060
2023-03-29T06:53:51.043Z,9.365905
2023-03-29T06:54:50.985Z,9.365898
2023-03-29T06:55:50.990Z,9.365965
2023-03-29T06:56:51.009Z,9.365975
2023-03-29T06:57:50.954Z,9.366035
2023-03-29T06:58:51.009Z,9.365938
2023-03-29T06:59:50.966Z,9.365895
2023-03-29T07:00:51.932Z,9.365954
2023-03-29T07:01:50.948Z,9.365970
2023-03-29T07:02:50.944Z,9.365979
2023-03-29T07:03:50.912Z,9.366022
2023-03-29T07:04:51.053Z,9.365991
2023-03-29T07:05:50.894Z,9.365978
2023-03-29T07:06:50.848Z,9.366051
2023-03-29T07:07:50.836Z,9.365971
2023-03-29T07:08:50.877Z,9.365973
2023-03-29T07:09:51.833Z,9.365976
2023-03-29T07:10:50.855Z,9.365973
2023-03-29T07:11:50.805Z,9.366005
2023-03-29T07:12:50.813Z,9.365973
2023-03-29T07:13:50.837Z,9.365962
2023-03-29T07:14:50.770Z,9.365926
2023-03-29T07:15:50.820Z,9.365963
2023-03-29T07:16:50.728Z,9.365962
2023-03-29T07:17:50.811Z,9.365988
2023-03-29T07:18:50.718Z,9.366000
2023-03-29T07:19:50.758Z,9.366055
2023-03-29T07:20:50.697Z,9.366026
2023-03-29T07:21:50.946Z,9.366033
2023-03-29T07:22:50.684Z,9.365982
2023-03-29T07:23:50.697Z,9.365976
2023-03-29T07:24:50.801Z,9.365919
2023-03-29T07:25:50.656Z,9.365958
2023-03-29T07:27:03.228Z,9.365945
2023-03-29T07:27:50.665Z,9.365949
2023-03-29T07:28:50.587Z,9.366012
2023-03-29T07:29:50.788Z,9.365981
2023-03-29T07:30:50.613Z,9.365983
2023-03-29T07:31:50.573Z,9.365959
2023-03-29T07:32:50.642Z,9.365927
2023-03-29T07:33:50.627Z,9.365985
2023-03-29T07:34:50.563Z,9.366026
2023-03-29T07:35:50.591Z,9.365999
2023-03-29T07:36:50.565Z,9.365973
2023-03-29T07:37:50.521Z,9.365967
2023-03-29T07:38:50.511Z,9.366010
2023-03-29T07:39:50.480Z,9.365941
2023-03-29T07:40:50.610Z,9.365949
2023-03-29T07:41:50.465Z,9.365948
2023-03-29T07:42:50.449Z,9.365931
2023-03-29T07:43:50.429Z,9.365951
2023-03-29T07:44:50.415Z,9.366002
2023-03-29T07:45:50.502Z,9.365994
2023-03-29T07:46:50.465Z,9.365891
2023-03-29T07:47:50.412Z,9.365948
2023-03-29T07:48:50.398Z,9.365949
2023-03-29T07:49:50.394Z,9.365910
2023-03-29T07:50:50.346Z,9.365988
2023-03-29T07:51:50.411Z,9.366043
2023-03-29T07:52:50.368Z,9.366011
2023-03-29T07:53:50.719Z,9.365975
2023-03-29T07:54:50.344Z,9.365918
2023-03-29T07:55:50.306Z,9.365947
2023-03-29T07:56:50.312Z,9.365889
2023-03-29T07:57:50.355Z,9.366014
2023-03-29T07:58:50.286Z,9.365988
2023-03-29T07:59:50.288Z,9.366145
2023-03-29T08:00:50.324Z,9.366062
2023-03-29T08:01:50.246Z,9.365958
2023-03-29T08:02:50.613Z,9.365946
2023-03-29T08:03:50.232Z,9.365933
2023-03-29T08:04:50.240Z,9.365915
2023-03-29T08:05:50.199Z,9.365825
2023-03-29T08:06:50.199Z,9.365767
2023-03-29T08:07:50.214Z,9.365811
2023-03-29T08:08:50.175Z,9.366040
2023-03-29T08:09:50.147Z,9.366014
2023-03-29T08:10:50.131Z,9.365888
2023-03-29T08:11:50.133Z,9.365795
2023-03-29T08:12:50.161Z,9.365885
2023-03-29T08:13:50.095Z,9.365875
2023-03-29T08:14:50.137Z,9.365912
2023-03-29T08:15:50.084Z,9.366050
2023-03-29T08:16:50.110Z,9.366030
2023-03-29T08:17:50.143Z,9.365942
2023-03-29T08:18:50.082Z,9.365939
2023-03-29T08:19:51.270Z,9.365998
2023-03-29T08:20:50.074Z,9.365946
2023-03-29T08:21:50.005Z,9.365911
2023-03-29T08:22:49.981Z,9.365952
2023-03-29T08:23:50.037Z,9.365912
2023-03-29T08:24:49.970Z,9.365952
2023-03-29T08:25:49.961Z,9.365993
2023-03-29T08:26:49.965Z,9.365919
2023-03-29T08:27:49.941Z,9.365947
2023-03-29T08:28:49.919Z,9.365964
2023-03-29T08:29:49.946Z,9.365954
2023-03-29T08:30:49.918Z,9.365952
2023-03-29T08:31:49.885Z,9.365962
2023-03-29T08:32:52.185Z,9.365961
2023-03-29T08:33:49.873Z,9.366158
2023-03-29T08:34:49.881Z,9.366049
2023-03-29T08:35:49.860Z,9.365908
2023-03-29T08:36:49.840Z,9.366033
2023-03-29T08:37:49.818Z,9.365913
2023-03-29T08:38:49.814Z,9.365974
2023-03-29T08:39:49.800Z,9.365871
2023-03-29T08:40:49.795Z,9.366014
2023-03-29T08:41:49.772Z,9.365922
2023-03-29T08:42:49.770Z,9.365945
2023-03-29T08:43:49.753Z,9.365939
2023-03-29T08:44:49.759Z,9.365909
2023-03-29T08:45:51.110Z,9.365960
2023-03-29T08:46:49.780Z,9.365963
2023-03-29T08:47:49.796Z,9.365832
2023-03-29T08:48:50.380Z,9.365908
2023-03-29T08:49:49.706Z,9.366006
2023-03-29T08:50:49.689Z,9.366004
2023-03-29T08:51:49.676Z,9.366016
2023-03-29T08:52:49.645Z,9.365972
2023-03-29T08:53:49.636Z,9.365965
2023-03-29T08:54:49.625Z,9.366065
2023-03-29T08:55:49.653Z,9.366083
2023-03-29T08:56:49.815Z,9.366102
2023-03-29T08:57:50.219Z,9.366196
2023-03-29T08:58:49.592Z,9.366150
2023-03-29T08:59:49.574Z,9.366185
2023-03-29T09:00:49.558Z,9.366088
2023-03-29T09:01:49.619Z,9.366180
2023-03-29T09:02:49.572Z,9.366265
2023-03-29T09:03:49.619Z,9.366278
2023-03-29T09:04:49.506Z,9.366161
2023-03-29T09:05:49.493Z,9.366107
2023-03-29T09:06:49.505Z,9.366055
2023-03-29T09:07:49.475Z,9.366111
2023-03-29T09:08:49.486Z,9.366066
2023-03-29T09:09:49.474Z,9.366081
2023-03-29T09:10:49.435Z,9.366088
2023-03-29T09:11:49.445Z,9.366156
2023-03-29T09:12:49.500Z,9.366065
2023-03-29T09:13:49.406Z,9.366086
2023-03-29T09:14:49.400Z,9.366233
2023-03-29T09:15:49.457Z,9.366093
2023-03-29T09:16:49.403Z,9.366082
2023-03-29T09:17:49.809Z,9.366042
2023-03-29T09:18:49.337Z,9.366069
2023-03-29T09:19:49.328Z,9.366237
2023-03-29T09:20:49.313Z,9.365985
2023-03-29T09:21:49.339Z,9.366183
2023-03-29T09:22:49.297Z,9.366276
2023-03-29T09:23:49.293Z,9.366139
2023-03-29T09:24:49.269Z,9.366048
2023-03-29T09:25:53.335Z,9.366033
2023-03-29T09:26:49.242Z,9.366041
2023-03-29T09:27:49.293Z,9.366079
2023-03-29T09:28:49.236Z,9.366076
2023-03-29T09:29:49.219Z,9.366082
2023-03-29T09:30:49.214Z,9.366019
2023-03-29T09:31:49.256Z,9.365997
2023-03-29T09:32:49.238Z,9.366047
2023-03-29T09:33:49.180Z,9.366016
2023-03-29T09:34:49.162Z,9.366030
2023-03-29T09:35:49.191Z,9.366121
2023-03-29T09:36:49.161Z,9.365972
2023-03-29T09:37:49.118Z,9.366101
2023-03-29T09:38:49.136Z,9.366106
2023-03-29T09:39:49.114Z,9.365959
2023-03-29T09:40:49.105Z,9.366143
2023-03-29T09:41:49.227Z,9.366043
2023-03-29T09:42:49.065Z,9.366018
2023-03-29T09:43:49.071Z,9.365824
2023-03-29T09:44:49.051Z,9.365912
2023-03-29T09:45:49.077Z,9.365837
2023-03-29T09:46:49.028Z,9.365938
2023-03-29T09:47:49.056Z,9.365993
2023-03-29T09:48:49.034Z,9.365719
2023-03-29T09:49:48.985Z,9.366094
2023-03-29T09:50:48.978Z,9.366057
2023-03-29T09:51:48.960Z,9.366105
2023-03-29T09:52:48.948Z,9.366032
2023-03-29T09:53:48.966Z,9.365987
2023-03-29T09:54:48.935Z,9.366034
2023-03-29T09:55:50.251Z,9.365994
2023-03-29T09:56:48.941Z,9.365910
2023-03-29T09:57:48.902Z,9.365878
2023-03-29T09:58:48.939Z,9.366081
2023-03-29T09:59:48.876Z,9.365932
2023-03-29T10:00:48.970Z,9.366109
2023-03-29T10:01:48.978Z,9.366186
2023-03-29T10:02:48.968Z,9.365940
2023-03-29T10:03:49.004Z,9.365835
2023-03-29T10:04:48.834Z,9.365916
2023-03-29T10:05:48.823Z,9.365846
2023-03-29T10:06:48.819Z,9.366064
2023-03-29T10:07:48.843Z,9.366208
2023-03-29T10:08:48.820Z,9.366056
2023-03-29T10:09:48.805Z,9.365727
2023-03-29T10:10:48.773Z,9.365915
2023-03-29T10:11:48.795Z,9.365919
2023-03-29T10:12:48.741Z,9.366055
2023-03-29T10:13:48.722Z,9.365990
2023-03-29T10:14:49.487Z,9.366085
2023-03-29T10:15:48.692Z,9.366010
2023-03-29T10:16:48.708Z,9.366006
2023-03-29T10:17:48.733Z,9.365995
2023-03-29T10:18:48.672Z,9.366019
2023-03-29T10:19:48.703Z,9.366157
2023-03-29T10:20:48.653Z,9.366043
2023-03-29T10:21:48.630Z,9.366043
2023-03-29T10:22:48.635Z,9.365996
2023-03-29T10:23:48.619Z,9.365919
2023-03-29T10:24:48.631Z,9.366061
2023-03-29T10:25:48.575Z,9.366124
2023-03-29T10:26:48.628Z,9.366066
2023-03-29T10:27:48.580Z,9.366380
2023-03-29T10:28:48.555Z,9.366243
2023-03-29T10:29:48.544Z,9.366190
2023-03-29T10:30:48.712Z,9.366356
2023-03-29T10:31:48.639Z,9.366230
2023-03-29T10:32:48.567Z,9.366066
2023-03-29T10:33:48.489Z,9.366045
2023-03-29T10:34:48.509Z,9.365959
2023-03-29T10:35:48.495Z,9.365826
2023-03-29T10:36:48.475Z,9.365910
2023-03-29T10:37:48.454Z,9.365601
2023-03-29T10:38:48.436Z,9.365809
2023-03-29T10:39:48.438Z,9.365936
2023-03-29T10:40:48.446Z,9.366001
2023-03-29T10:41:48.422Z,9.365943
2023-03-29T10:42:48.396Z,9.365968
2023-03-29T10:43:48.368Z,9.365976
2023-03-29T10:44:48.363Z,9.365979
2023-03-29T10:45:48.456Z,9.365992
2023-03-29T10:46:48.358Z,9.366043
2023-03-29T10:47:48.541Z,9.365940
2023-03-29T10:48:48.339Z,9.365993
2023-03-29T10:49:48.339Z,9.366125
2023-03-29T10:50:48.289Z,9.365976
2023-03-29T10:51:48.315Z,9.365987
2023-03-29T10:52:48.282Z,9.365817
2023-03-29T10:53:48.307Z,9.366036
2023-03-29T10:54:48.270Z,9.365952
2023-03-29T10:55:48.267Z,9.366035
2023-03-29T10:56:49.089Z,9.365984
2023-03-29T10:57:48.211Z,9.366093
2023-03-29T10:58:48.204Z,9.366127
2023-03-29T10:59:48.192Z,9.366120
2023-03-29T11:00:48.177Z,9.366041
2023-03-29T11:01:48.272Z,9.366074
2023-03-29T11:02:48.236Z,9.366033
2023-03-29T11:03:48.287Z,9.365967
2023-03-29T11:04:48.127Z,9.365925
2023-03-29T11:05:48.148Z,9.365953
2023-03-29T11:06:48.185Z,9.365987
2023-03-29T11:07:48.157Z,9.366001
2023-03-29T11:08:48.106Z,9.365993
2023-03-29T11:09:48.085Z,9.365994
2023-03-29T11:10:48.078Z,9.366126
2023-03-29T11:11:48.100Z,9.366173
2023-03-29T11:12:48.066Z,9.366183
2023-03-29T11:13:48.035Z,9.366200
2023-03-29T11:14:48.011Z,9.365999
2023-03-29T11:15:48.028Z,9.366075
2023-03-29T11:16:47.993Z,9.366057
2023-03-29T11:17:47.996Z,9.366064
2023-03-29T11:18:47.998Z,9.365993
2023-03-29T11:19:47.986Z,9.365973
2023-03-29T11:20:47.935Z,9.365998
2023-03-29T11:21:47.986Z,9.365962
2023-03-29T11:22:47.936Z,9.365996
2023-03-29T11:23:47.970Z,9.365974
2023-03-29T11:24:47.930Z,9.366008
2023-03-29T11:25:47.912Z,9.366064
2023-03-29T11:26:47.883Z,9.366158
2023-03-29T11:27:47.875Z,9.366030
2023-03-29T11:28:47.865Z,9.365738
2023-03-29T11:29:47.894Z,9.365879
2023-03-29T11:30:48.033Z,9.365755
2023-03-29T11:31:47.897Z,9.365715
2023-03-29T11:32:47.874Z,9.365993
2023-03-29T11:33:47.781Z,9.366140
2023-03-29T11:34:47.838Z,9.365924
2023-03-29T11:35:47.771Z,9.366019
2023-03-29T11:36:47.747Z,9.366102
2023-03-29T11:37:47.745Z,9.366014
2023-03-29T11:38:47.706Z,9.365972
2023-03-29T11:39:47.725Z,9.366008
2023-03-29T11:40:47.763Z,9.365928
2023-03-29T11:41:47.686Z,9.365979
2023-03-29T11:42:48.191Z,9.365924
2023-03-29T11:43:47.677Z,9.365961
2023-03-29T11:44:47.662Z,9.365767
2023-03-29T11:45:47.682Z,9.365812
2023-03-29T11:46:47.701Z,9.365746
2023-03-29T11:47:47.715Z,9.365959
2023-03-29T11:48:47.605Z,9.366066
2023-03-29T11:49:47.638Z,9.366037
2023-03-29T11:50:47.591Z,9.366031
2023-03-29T11:51:48.060Z,9.365960
2023-03-29T11:52:47.555Z,9.365781
2023-03-29T11:53:47.575Z,9.365844
2023-03-29T11:54:47.569Z,9.365903
2023-03-29T11:55:47.540Z,9.366111
2023-03-29T11:56:47.785Z,9.366158
2023-03-29T11:57:47.548Z,9.365887
2023-03-29T11:58:47.521Z,9.365959
2023-03-29T11:59:47.558Z,9.366100
2023-03-29T12:00:47.509Z,9.365960
2023-03-29T12:01:47.546Z,9.365947
2023-03-29T12:02:47.860Z,9.365880
2023-03-29T12:03:47.668Z,9.365651
2023-03-29T12:04:48.451Z,9.365640
2023-03-29T12:05:47.444Z,9.365915
2023-03-29T12:06:47.502Z,9.365859
2023-03-29T12:07:47.559Z,9.365804
2023-03-29T12:08:47.385Z,9.365888
2023-03-29T12:09:47.595Z,9.365850
2023-03-29T12:10:47.399Z,9.365557
2023-03-29T12:11:47.334Z,9.365350
2023-03-29T12:12:47.342Z,9.365233
2023-03-29T12:13:47.379Z,9.365047
2023-03-29T12:14:47.402Z,9.365098
2023-03-29T12:15:47.300Z,9.365273
2023-03-29T12:16:47.301Z,9.365516
2023-03-29T12:17:47.357Z,9.365460
2023-03-29T12:18:47.310Z,9.365557
2023-03-29T12:19:47.265Z,9.365856
2023-03-29T12:20:47.300Z,9.366031
2023-03-29T12:21:47.270Z,9.365595
2023-03-29T12:22:47.231Z,9.365426
2023-03-29T12:23:47.191Z,9.365295
2023-03-29T12:24:47.230Z,9.365499
2023-03-29T12:25:47.200Z,9.365237
2023-03-29T12:26:47.322Z,9.365027
2023-03-29T12:27:47.146Z,9.364626
2023-03-29T12:28:47.177Z,9.364482
2023-03-29T12:29:47.189Z,9.364435
2023-03-29T12:30:47.135Z,9.364385
2023-03-29T12:31:47.151Z,9.364579
2023-03-29T12:32:47.156Z,9.365064
2023-03-29T12:33:47.101Z,9.365447
2023-03-29T12:34:47.129Z,9.365551
2023-03-29T12:35:47.100Z,9.366235
2023-03-29T12:36:47.041Z,9.366590
2023-03-29T12:37:47.854Z,9.366784
2023-03-29T12:38:47.039Z,9.366607
2023-03-29T12:39:47.033Z,9.366502
2023-03-29T12:40:47.044Z,9.366957
2023-03-29T12:41:47.016Z,9.367430
2023-03-29T12:42:47.018Z,9.367141
2023-03-29T12:43:46.980Z,9.366880
2023-03-29T12:44:46.982Z,9.366587
2023-03-29T12:45:47.030Z,9.366380
2023-03-29T12:46:47.691Z,9.366069
2023-03-29T12:47:46.988Z,9.365995
2023-03-29T12:48:46.923Z,9.366094
2023-03-29T12:49:46.904Z,9.365904
2023-03-29T12:50:46.911Z,9.366005
2023-03-29T12:51:46.891Z,9.365869
2023-03-29T12:52:47.063Z,9.365985
2023-03-29T12:53:46.888Z,9.365992
2023-03-29T12:54:46.875Z,9.365914
2023-03-29T12:55:46.863Z,9.365718
2023-03-29T12:56:46.878Z,9.366001
2023-03-29T12:57:46.782Z,9.365700
2023-03-29T12:58:47.771Z,9.365775
2023-03-29T12:59:46.854Z,9.365846
2023-03-29T13:00:46.780Z,9.366053
2023-03-29T13:01:46.843Z,9.365870
2023-03-29T13:02:46.924Z,9.365933
2023-03-29T13:03:46.732Z,9.365929
2023-03-29T13:04:46.739Z,9.365803
2023-03-29T13:05:46.853Z,9.365963
2023-03-29T13:06:46.715Z,9.365967
2023-03-29T13:07:46.712Z,9.366005
2023-03-29T13:08:46.661Z,9.366007
2023-03-29T13:09:46.664Z,9.365930
2023-03-29T13:10:46.647Z,9.365888
2023-03-29T13:11:46.639Z,9.365992
2023-03-29T13:12:46.681Z,9.366029
2023-03-29T13:13:46.627Z,9.365973
2023-03-29T13:14:46.608Z,9.365924
2023-03-29T13:15:46.607Z,9.365963
2023-03-29T13:16:46.597Z,9.366027
2023-03-29T13:17:46.664Z,9.365973
2023-03-29T13:18:46.553Z,9.366056
2023-03-29T13:19:46.557Z,9.366003
2023-03-29T13:20:46.554Z,9.365964
2023-03-29T13:21:46.542Z,9.366014
2023-03-29T13:22:46.522Z,9.366008
2023-03-29T13:23:46.545Z,9.366027
2023-03-29T13:24:46.506Z,9.365993
2023-03-29T13:25:46.499Z,9.366000
2023-03-29T13:26:46.468Z,9.366072
2023-03-29T13:27:46.451Z,9.366055
2023-03-29T13:28:46.491Z,9.366003
2023-03-29T13:29:46.445Z,9.366068
2023-03-29T13:30:46.433Z,9.366024
2023-03-29T13:31:46.513Z,9.366023
2023-03-29T13:32:46.487Z,9.366005
2023-03-29T13:33:46.446Z,9.366040
2023-03-29T13:34:46.548Z,9.366009
2023-03-29T13:35:46.413Z,9.366001
2023-03-29T13:36:46.359Z,9.365996
2023-03-29T13:37:46.374Z,9.365985
2023-03-29T13:38:46.358Z,9.365982
2023-03-29T13:39:46.371Z,9.365991
2023-03-29T13:40:46.359Z,9.365988
2023-03-29T13:41:46.297Z,9.366009
2023-03-29T13:42:47.244Z,9.366023
2023-03-29T13:43:47.290Z,9.366027
2023-03-29T13:44:46.303Z,9.366133
2023-03-29T13:45:46.327Z,9.366039
2023-03-29T13:46:46.320Z,9.366025
2023-03-29T13:48:02.368Z,9.366118
2023-03-29T13:48:47.245Z,9.366096
2023-03-29T13:49:46.224Z,9.365971
2023-03-29T13:50:46.261Z,9.366007
2023-03-29T13:51:46.223Z,9.366013
2023-03-29T13:52:46.184Z,9.366036
2023-03-29T13:53:46.200Z,9.366018
2023-03-29T13:54:46.160Z,9.366056
2023-03-29T13:55:46.166Z,9.366105
2023-03-29T13:56:46.193Z,9.366179
2023-03-29T13:57:46.129Z,9.366133
2023-03-29T13:58:46.167Z,9.366072
2023-03-29T13:59:46.103Z,9.366025
2023-03-29T14:00:46.209Z,9.365954
2023-03-29T14:01:46.181Z,9.365993
2023-03-29T14:02:48.741Z,9.366042
2023-03-29T14:03:47.082Z,9.365996
2023-03-29T14:04:46.056Z,9.366019
2023-03-29T14:05:46.050Z,9.366095
2023-03-29T14:06:46.049Z,9.366133
2023-03-29T14:07:46.074Z,9.366150
2023-03-29T14:08:46.015Z,9.366103
2023-03-29T14:09:46.047Z,9.366192
2023-03-29T14:10:46.011Z,9.366093
2023-03-29T14:11:46.000Z,9.366040
2023-03-29T14:12:46.030Z,9.366031
2023-03-29T14:13:45.985Z,9.366080
2023-03-29T14:14:58.284Z,9.366090
2023-03-29T14:15:46.957Z,9.366069
2023-03-29T14:16:46.010Z,9.365973
2023-03-29T14:17:45.945Z,9.366017
2023-03-29T14:18:45.946Z,9.366018
2023-03-29T14:19:45.918Z,9.365967
2023-03-29T14:20:45.896Z,9.366018
2023-03-29T14:21:45.880Z,9.366034
2023-03-29T14:22:45.912Z,9.366035
2023-03-29T14:23:45.876Z,9.366113
2023-03-29T14:24:45.869Z,9.366055
2023-03-29T14:25:45.938Z,9.365944
2023-03-29T14:26:45.850Z,9.366053
2023-03-29T14:27:45.867Z,9.366089
2023-03-29T14:28:45.865Z,9.366071
2023-03-29T14:29:45.826Z,9.366089
2023-03-29T14:30:45.807Z,9.366092
2023-03-29T14:31:45.849Z,9.366093
2023-03-29T14:32:46.195Z,9.366086
2023-03-29T15:44:03.737Z,9.367536
2023-03-29T15:45:03.759Z,9.367536
2023-03-29T15:46:04.054Z,9.367404
2023-03-29T15:47:03.744Z,9.366817
2023-03-29T15:48:03.739Z,9.366905
2023-03-29T15:49:03.675Z,9.367276
2023-03-29T15:50:03.694Z,9.366743
2023-03-29T15:51:06.431Z,9.367174
2023-03-29T15:52:04.643Z,9.367133
2023-03-29T15:53:14.116Z,9.365993
2023-03-29T15:54:03.597Z,9.365975
2023-03-29T15:55:03.613Z,9.366444
2023-03-29T15:56:03.980Z,9.367908
2023-03-29T15:57:03.652Z,9.368021
2023-03-29T15:58:03.657Z,9.368010
2023-03-29T15:59:03.566Z,9.367583
2023-03-29T16:00:03.552Z,9.366834
2023-03-29T16:01:03.624Z,9.366711
2023-03-29T16:02:03.581Z,9.366763
2023-03-29T16:03:03.591Z,9.366276
2023-03-29T16:04:03.508Z,9.365910
2023-03-29T16:05:03.486Z,9.366736
2023-03-29T16:06:03.616Z,9.366160
2023-03-29T16:07:03.553Z,9.366215
2023-03-29T16:08:03.456Z,9.366308
2023-03-29T16:09:03.426Z,9.366341
2023-03-29T16:10:03.426Z,9.366120
2023-03-29T16:11:03.422Z,9.365970
2023-03-29T16:12:03.438Z,9.366229
2023-03-29T16:13:03.404Z,9.366452
2023-03-29T16:14:03.393Z,9.366447
2023-03-29T16:15:03.363Z,9.366692
2023-03-29T16:16:03.632Z,9.366838
2023-03-29T16:17:03.434Z,9.366610
2023-03-29T16:18:03.392Z,9.366610
2023-03-29T16:19:03.321Z,9.366610
2023-03-29T16:20:03.326Z,9.366610
2023-03-29T16:21:03.291Z,9.367219
2023-03-29T16:22:03.286Z,9.366729
2023-03-29T16:23:03.395Z,9.366493
2023-03-29T16:24:03.262Z,9.366181
2023-03-29T16:25:03.251Z,9.366221
2023-03-29T16:26:03.507Z,9.366116
2023-03-29T16:27:03.215Z,9.365997
2023-03-29T16:28:03.396Z,9.365963
2023-03-29T16:29:03.260Z,9.366029
2023-03-29T16:30:03.202Z,9.366144
2023-03-29T16:31:03.166Z,9.366223
2023-03-29T16:32:04.704Z,9.366387
2023-03-29T16:33:03.184Z,9.366457
2023-03-29T16:34:03.228Z,9.366394